createdAt,value
2022-11-05T00:00:53.235Z,92.06
2022-11-05T00:04:06.174Z,92.87
2022-11-05T00:07:13.222Z,93.59
2022-11-05T00:10:05.974Z,94.44
2022-11-05T00:13:12.412Z,94.20
2022-11-05T00:16:16.947Z,90.59
2022-11-05T00:19:10.153Z,92.54
2022-11-05T00:22:14.659Z,91.74
2022-11-05T00:25:17.868Z,92.35
2022-11-05T00:28:04.940Z,93.01
2022-11-05T00:30:52.135Z,92.59
2022-11-05T00:33:40.127Z,93.59
2022-11-05T00:36:26.938Z,92.52
2022-11-05T00:39:13.848Z,94.21
2022-11-05T00:42:19.656Z,92.50
2022-11-05T00:45:08.103Z,93.17
2022-11-05T00:48:12.791Z,94.06
2022-11-05T00:50:59.951Z,94.93
2022-11-05T00:53:46.993Z,92.31
2022-11-05T00:56:34.286Z,92.03
2022-11-05T00:59:22.308Z,92.91
2022-11-05T01:02:09.637Z,94.22
2022-11-05T01:04:56.505Z,93.75
2022-11-05T01:07:43.233Z,93.36
2022-11-05T01:10:30.621Z,92.80
2022-11-05T01:13:19.826Z,93.19
2022-11-05T01:16:10.767Z,92.44
2022-11-05T01:18:57.466Z,92.29
2022-11-05T01:21:44.151Z,91.78
2022-11-05T01:24:30.900Z,91.99
2022-11-05T01:27:18.042Z,91.80
2022-11-05T01:30:06.940Z,92.36
2022-11-05T01:32:55.262Z,92.61
2022-11-05T01:35:42.502Z,91.95
2022-11-05T01:38:29.308Z,91.90
2022-11-05T01:41:16.217Z,91.77
2022-11-05T01:44:03.404Z,91.31
2022-11-05T01:46:50.535Z,92.06
2022-11-05T01:49:38.785Z,91.91
2022-11-05T01:52:27.915Z,92.88
2022-11-05T01:55:20.686Z,92.54
2022-11-05T01:58:10.298Z,92.64
2022-11-05T02:00:58.068Z,92.49
2022-11-05T02:03:46.148Z,93.08
2022-11-05T02:06:38.312Z,92.29
2022-11-05T02:09:31.051Z,93.18
2022-11-05T02:12:19.326Z,92.42
2022-11-05T02:15:08.144Z,91.93
2022-11-05T02:18:05.798Z,93.48
2022-11-05T02:21:04.049Z,93.86
2022-11-05T02:24:13.946Z,93.70
2022-11-05T02:27:15.277Z,93.07
2022-11-05T02:30:08.716Z,91.80
2022-11-05T02:33:16.294Z,92.71
2022-11-05T02:36:14.239Z,93.00
2022-11-05T02:39:12.940Z,92.89
2022-11-05T02:42:09.195Z,93.29
2022-11-05T02:45:06.398Z,92.91
2022-11-05T02:47:59.993Z,94.25
2022-11-05T02:50:57.905Z,94.18
2022-11-05T02:53:51.986Z,95.58
2022-11-05T02:56:42.781Z,96.30
2022-11-05T02:59:29.766Z,96.66
2022-11-05T03:02:17.095Z,96.59
2022-11-05T03:05:05.274Z,97.90
2022-11-05T03:08:00.482Z,97.38
2022-11-05T03:10:57.541Z,96.14
2022-11-05T03:13:53.786Z,95.86
2022-11-05T03:16:42.907Z,96.20
2022-11-05T03:19:37.919Z,96.09
2022-11-05T03:22:29.498Z,96.31
2022-11-05T03:25:22.577Z,96.47
2022-11-05T03:28:11.756Z,96.38
2022-11-05T03:31:00.300Z,96.92
2022-11-05T03:33:49.421Z,97.66
2022-11-05T03:36:41.176Z,97.83
2022-11-05T03:39:33.851Z,98.10
2022-11-05T03:42:26.945Z,97.87
2022-11-05T03:45:17.704Z,97.51
2022-11-05T03:48:08.198Z,97.85
2022-11-05T03:51:01.409Z,97.19
2022-11-05T03:53:51.949Z,96.78
2022-11-05T03:56:45.697Z,96.47
2022-11-05T03:59:41.452Z,97.18
2022-11-05T04:02:28.590Z,96.07
2022-11-05T04:05:15.640Z,94.30
2022-11-05T04:08:20.185Z,95.00
2022-11-05T04:11:26.474Z,96.12
2022-11-05T04:14:13.475Z,97.01
2022-11-05T04:17:07.313Z,97.14
2022-11-05T04:20:11.347Z,97.04
2022-11-05T04:23:22.699Z,97.64
2022-11-05T04:26:09.691Z,96.94
2022-11-05T04:29:14.157Z,96.99
2022-11-05T04:32:02.506Z,97.04
2022-11-05T04:34:49.281Z,97.03
2022-11-05T04:37:35.996Z,96.77
2022-11-05T04:40:22.826Z,96.57
2022-11-05T04:43:14.919Z,96.51
2022-11-05T04:46:02.198Z,97.74
2022-11-05T04:48:50.141Z,97.83
2022-11-05T04:51:36.897Z,97.78
2022-11-05T04:54:23.673Z,96.43
2022-11-05T04:57:11.096Z,95.70
2022-11-05T04:59:57.985Z,96.92
2022-11-05T05:02:44.925Z,97.35
2022-11-05T05:05:32.902Z,97.55
2022-11-05T05:08:19.503Z,98.47
2022-11-05T05:11:08.015Z,98.97
2022-11-05T05:13:54.937Z,98.75
2022-11-05T05:16:41.565Z,98.48
2022-11-05T05:19:28.588Z,98.67
2022-11-05T05:22:16.068Z,99.03
2022-11-05T05:25:03.371Z,100.00
2022-11-05T05:27:50.409Z,100.00
2022-11-05T05:30:37.197Z,100.00
2022-11-05T05:33:24.313Z,100.00
2022-11-05T05:36:11.671Z,100.00
2022-11-05T05:39:00.253Z,99.89
2022-11-05T05:41:47.003Z,97.31
2022-11-05T05:44:33.661Z,97.13
2022-11-05T05:47:21.096Z,98.03
2022-11-05T05:50:08.487Z,99.12
2022-11-05T05:52:55.792Z,100.00
2022-11-05T05:55:44.314Z,100.00
2022-11-05T05:58:33.618Z,100.00
2022-11-05T06:01:20.840Z,100.00
2022-11-05T06:04:07.980Z,100.00
2022-11-05T06:06:54.770Z,100.00
2022-11-05T06:09:42.051Z,100.00
2022-11-05T06:12:31.425Z,100.00
2022-11-05T06:15:18.539Z,100.00
2022-11-05T06:18:05.471Z,100.00
2022-11-05T06:20:52.913Z,100.00
2022-11-05T06:23:42.438Z,100.00
2022-11-05T06:26:29.799Z,100.00
2022-11-05T06:29:17.882Z,100.00
2022-11-05T06:32:04.537Z,100.00
2022-11-05T06:34:51.322Z,100.00
2022-11-05T06:37:38.171Z,100.00
2022-11-05T06:40:26.324Z,100.00
2022-11-05T06:43:13.381Z,100.00
2022-11-05T06:46:03.810Z,100.00
2022-11-05T06:48:50.975Z,100.00
2022-11-05T06:51:38.123Z,100.00
2022-11-05T06:54:25.054Z,100.00
2022-11-05T06:57:12.856Z,100.00
2022-11-05T07:00:03.325Z,100.00
2022-11-05T07:02:55.898Z,100.00
2022-11-05T07:05:47.516Z,100.00
2022-11-05T07:08:36.225Z,100.00
2022-11-05T07:11:23.317Z,100.00
2022-11-05T07:14:10.506Z,100.00
2022-11-05T07:16:57.872Z,100.00
2022-11-05T07:19:46.226Z,100.00
2022-11-05T07:22:33.347Z,100.00
2022-11-05T07:25:20.333Z,100.00
2022-11-05T07:28:07.872Z,100.00
2022-11-05T07:30:55.067Z,100.00
2022-11-05T07:33:41.940Z,100.00
2022-11-05T07:36:30.203Z,100.00
2022-11-05T07:39:17.380Z,100.00
2022-11-05T07:42:04.237Z,100.00
2022-11-05T07:44:53.653Z,100.00
2022-11-05T07:47:46.845Z,100.00
2022-11-05T07:50:36.789Z,100.00
2022-11-05T07:53:25.094Z,99.95
2022-11-05T07:56:12.129Z,99.51
2022-11-05T07:58:59.063Z,99.99
2022-11-05T08:01:46.561Z,99.93
2022-11-05T08:04:33.532Z,98.08
2022-11-05T08:07:20.693Z,97.50
2022-11-05T08:10:09.819Z,98.46
2022-11-05T08:12:57.566Z,97.69
2022-11-05T08:15:45.387Z,97.47
2022-11-05T08:18:33.107Z,96.84
2022-11-05T08:21:19.818Z,94.43
2022-11-05T08:24:07.376Z,96.62
2022-11-05T08:26:55.518Z,95.99
2022-11-05T08:29:42.404Z,95.38
2022-11-05T08:32:29.429Z,95.38
2022-11-05T08:35:16.054Z,95.16
2022-11-05T08:38:04.170Z,95.25
2022-11-05T08:40:57.476Z,95.63
2022-11-05T08:43:45.636Z,95.42
2022-11-05T08:46:32.293Z,95.35
2022-11-05T08:49:19.739Z,95.44
2022-11-05T08:52:06.880Z,95.43
2022-11-05T08:54:54.009Z,94.50
2022-11-05T08:57:40.785Z,93.71
2022-11-05T09:00:30.670Z,94.31
2022-11-05T09:03:17.860Z,93.64
2022-11-05T09:06:05.343Z,93.66
2022-11-05T09:08:52.651Z,94.21
2022-11-05T09:12:09.831Z,94.21
2022-11-05T09:14:46.115Z,93.12
2022-11-05T09:17:34.329Z,92.91
2022-11-05T09:20:21.066Z,92.52
2022-11-05T09:23:09.523Z,90.75
2022-11-05T09:25:56.292Z,91.45
2022-11-05T09:28:44.274Z,88.97
2022-11-05T09:31:31.417Z,87.31
2022-11-05T09:34:20.010Z,86.84
2022-11-05T09:37:06.582Z,86.37
2022-11-05T09:39:54.205Z,86.06
2022-11-05T09:42:46.752Z,84.93
2022-11-05T09:45:36.435Z,83.36
2022-11-05T09:48:29.046Z,82.28
2022-11-05T09:51:23.660Z,82.08
2022-11-05T09:54:12.887Z,82.28
2022-11-05T09:57:02.736Z,81.91
2022-11-05T09:59:52.894Z,80.74
2022-11-05T10:02:48.601Z,79.95
2022-11-05T10:05:38.009Z,79.66
2022-11-05T10:08:30.909Z,80.51
2022-11-05T10:11:22.105Z,81.04
2022-11-05T10:14:15.583Z,80.40
2022-11-05T10:17:09.863Z,81.90
2022-11-05T10:20:04.114Z,80.38
2022-11-05T10:22:57.728Z,80.25
2022-11-05T10:25:48.507Z,78.27
2022-11-05T10:28:36.083Z,76.72
2022-11-05T10:31:24.508Z,76.40
2022-11-05T10:34:13.703Z,76.67
2022-11-05T10:37:00.966Z,76.37
2022-11-05T10:39:47.847Z,76.44
2022-11-05T10:42:48.012Z,74.90
2022-11-05T10:45:41.518Z,76.74
2022-11-05T10:48:51.817Z,77.03
2022-11-05T10:51:39.095Z,76.24
2022-11-05T10:54:31.365Z,77.61
2022-11-05T10:57:30.678Z,75.69
2022-11-05T11:00:25.958Z,75.90
2022-11-05T11:03:35.069Z,76.59
2022-11-05T11:06:25.987Z,76.33
2022-11-05T11:09:21.953Z,76.21
2022-11-05T11:12:16.809Z,74.84
2022-11-05T11:15:06.230Z,72.34
2022-11-05T11:17:55.320Z,73.87
2022-11-05T11:20:45.848Z,73.68
2022-11-05T11:23:38.552Z,74.20
2022-11-05T11:26:26.893Z,75.07
2022-11-05T11:29:19.393Z,73.72
2022-11-05T11:32:14.222Z,74.34
2022-11-05T11:35:03.437Z,72.40
2022-11-05T11:37:54.274Z,71.40
2022-11-05T11:40:41.805Z,73.00
2022-11-05T11:43:31.128Z,72.31
2022-11-05T11:46:20.621Z,72.25
2022-11-05T11:49:08.140Z,72.06
2022-11-05T11:52:02.722Z,71.97
2022-11-05T11:54:51.189Z,71.84
2022-11-05T11:57:45.589Z,72.43
2022-11-05T12:00:37.624Z,69.69
2022-11-05T12:03:32.038Z,70.88
2022-11-05T12:06:28.429Z,70.20
2022-11-05T12:09:22.618Z,70.16
2022-11-05T12:12:13.115Z,71.22
2022-11-05T12:15:15.733Z,70.60
2022-11-05T12:18:04.632Z,71.98
2022-11-05T12:21:13.291Z,71.19
2022-11-05T12:24:35.589Z,71.50
2022-11-05T12:27:34.566Z,71.47
2022-11-05T12:30:23.133Z,70.90
2022-11-05T12:33:23.266Z,70.66
2022-11-05T12:36:20.436Z,69.54
2022-11-05T12:39:29.781Z,69.59
2022-11-05T12:42:30.827Z,68.36
2022-11-05T12:45:30.726Z,69.34
2022-11-05T12:48:42.336Z,68.87
2022-11-05T12:51:44.083Z,66.65
2022-11-05T12:54:44.424Z,68.74
2022-11-05T12:57:36.969Z,68.86
2022-11-05T13:00:25.890Z,67.88
2022-11-05T13:03:25.474Z,67.58
2022-11-05T13:06:15.984Z,68.68
2022-11-05T13:09:08.378Z,68.10
2022-11-05T13:11:58.880Z,68.03
2022-11-05T13:14:56.182Z,67.63
2022-11-05T13:17:51.740Z,68.40
2022-11-05T13:20:41.179Z,69.16
2022-11-05T13:23:33.146Z,70.29
2022-11-05T13:26:25.725Z,70.68
2022-11-05T13:29:16.584Z,70.37
2022-11-05T13:32:13.511Z,71.01
2022-11-05T13:35:03.439Z,70.47
2022-11-05T13:38:15.503Z,69.80
2022-11-05T13:41:20.891Z,69.20
2022-11-05T13:44:45.024Z,69.56
2022-11-05T13:47:55.057Z,71.46
2022-11-05T13:51:01.393Z,69.84
2022-11-05T13:54:05.935Z,69.29
2022-11-05T13:57:09.927Z,69.75
2022-11-05T14:00:11.401Z,70.41
2022-11-05T14:03:03.311Z,70.60
2022-11-05T14:05:54.210Z,70.72
2022-11-05T14:08:45.898Z,70.34
2022-11-05T14:11:35.654Z,70.83
2022-11-05T14:14:27.179Z,71.60
2022-11-05T14:17:17.691Z,71.67
2022-11-05T14:20:25.164Z,71.58
2022-11-05T14:23:49.831Z,73.12
2022-11-05T14:26:36.709Z,73.16
2022-11-05T14:29:25.557Z,73.13
2022-11-05T14:32:26.871Z,72.92
2022-11-05T14:35:36.340Z,72.79
2022-11-05T14:38:25.968Z,71.85
2022-11-05T14:41:12.847Z,71.69
2022-11-05T14:44:05.942Z,71.72
2022-11-05T14:46:55.894Z,71.92
2022-11-05T14:49:53.271Z,72.78
2022-11-05T14:52:52.066Z,73.30
2022-11-05T14:55:41.345Z,73.49
2022-11-05T14:58:34.057Z,73.78
2022-11-05T15:01:56.134Z,72.18
2022-11-05T15:04:45.612Z,72.36
2022-11-05T15:07:39.346Z,73.18
2022-11-05T15:10:33.079Z,73.07
2022-11-05T15:13:29.894Z,73.26
2022-11-05T15:16:21.769Z,72.75
2022-11-05T15:19:18.488Z,73.10
2022-11-05T15:22:22.922Z,72.93
2022-11-05T15:25:18.484Z,72.63
2022-11-05T15:28:15.376Z,71.73
2022-11-05T15:31:04.153Z,72.23
2022-11-05T15:33:50.903Z,72.69
2022-11-05T15:36:37.841Z,71.69
2022-11-05T15:39:29.757Z,72.17
2022-11-05T15:42:22.088Z,72.62
2022-11-05T15:45:21.335Z,71.81
2022-11-05T15:48:16.565Z,71.26
2022-11-05T15:51:04.050Z,71.49
2022-11-05T15:57:15.826Z,72.68
2022-11-05T16:00:06.703Z,73.82
2022-11-05T16:02:58.265Z,73.90
2022-11-05T16:05:48.211Z,74.59
2022-11-05T16:08:34.987Z,74.00
2022-11-05T16:11:23.244Z,74.53
2022-11-05T16:14:18.645Z,74.63
2022-11-05T16:17:19.051Z,74.44
2022-11-05T16:20:21.780Z,74.28
2022-11-05T16:23:24.161Z,74.07
2022-11-05T16:29:40.852Z,73.95
2022-11-05T16:32:30.989Z,74.31
2022-11-05T16:35:22.261Z,73.64
2022-11-05T16:38:13.034Z,73.97
2022-11-05T16:41:00.409Z,74.31
2022-11-05T16:43:53.472Z,73.65
2022-11-05T16:46:42.518Z,73.15
2022-11-05T16:49:29.649Z,72.58
2022-11-05T16:52:17.839Z,72.34
2022-11-05T16:55:05.773Z,72.10
2022-11-05T16:57:55.584Z,72.15
2022-11-05T17:00:42.919Z,72.18
2022-11-05T17:03:30.651Z,72.31
2022-11-05T17:06:18.879Z,71.87
2022-11-05T17:09:07.461Z,72.25
2022-11-05T17:11:54.186Z,71.82
2022-11-05T17:14:41.075Z,72.25
2022-11-05T17:17:28.976Z,71.36
2022-11-05T17:20:25.239Z,71.61
2022-11-05T17:23:15.852Z,71.94
2022-11-05T17:26:07.928Z,72.69
2022-11-05T17:28:54.849Z,73.06
2022-11-05T17:31:42.535Z,73.79
2022-11-05T17:34:29.470Z,73.96
2022-11-05T17:37:17.919Z,74.00
2022-11-05T17:40:07.162Z,72.98
2022-11-05T17:42:55.500Z,72.74
2022-11-05T17:45:43.716Z,72.54
2022-11-05T17:48:30.490Z,73.03
2022-11-05T17:51:19.051Z,72.36
2022-11-05T17:54:07.556Z,72.14
2022-11-05T17:56:55.047Z,72.86
2022-11-05T17:59:43.677Z,72.60
2022-11-05T18:02:30.981Z,72.83
2022-11-05T18:05:19.033Z,73.42
2022-11-05T18:08:06.659Z,71.68
2022-11-05T18:10:54.522Z,71.75
2022-11-05T18:13:41.795Z,71.96
2022-11-05T18:16:30.611Z,71.00
2022-11-05T18:19:17.984Z,71.67
2022-11-05T18:22:04.763Z,71.52
2022-11-05T18:24:52.392Z,72.33
2022-11-05T18:27:40.077Z,72.32
2022-11-05T18:30:26.943Z,72.77
2022-11-05T18:33:15.720Z,71.75
2022-11-05T18:36:02.965Z,72.23
2022-11-05T18:38:50.860Z,72.12
2022-11-05T18:41:38.050Z,72.34
2022-11-05T18:44:25.497Z,72.13
2022-11-05T18:47:12.771Z,72.32
2022-11-05T18:50:01.073Z,72.12
2022-11-05T18:52:48.350Z,72.44
2022-11-05T18:55:35.251Z,73.48
2022-11-05T18:58:22.134Z,73.51
2022-11-05T19:01:15.799Z,74.08
2022-11-05T19:04:02.912Z,74.47
2022-11-05T19:06:51.000Z,74.35
2022-11-05T19:09:39.762Z,73.77
2022-11-05T19:12:26.492Z,73.52
2022-11-05T19:15:13.047Z,73.58
2022-11-05T19:17:59.767Z,72.43
2022-11-05T19:20:46.439Z,73.45
2022-11-05T19:23:37.616Z,73.53
2022-11-05T19:26:28.784Z,72.99
2022-11-05T19:29:16.433Z,73.17
2022-11-05T19:32:03.602Z,73.15
2022-11-05T19:34:50.696Z,73.47
2022-11-05T19:37:37.318Z,73.33
2022-11-05T19:40:25.477Z,73.52
2022-11-05T19:43:12.981Z,73.38
2022-11-05T19:45:59.933Z,73.99
2022-11-05T19:48:47.052Z,74.14
2022-11-05T19:51:34.307Z,73.56
2022-11-05T19:54:21.370Z,73.18
2022-11-05T19:57:09.649Z,74.01
2022-11-05T19:59:57.158Z,74.35
2022-11-05T20:02:46.223Z,73.16
2022-11-05T20:05:34.428Z,74.21
2022-11-05T20:08:22.111Z,74.91
2022-11-05T20:11:10.038Z,74.80
2022-11-05T20:13:59.221Z,74.29
2022-11-05T20:16:47.419Z,75.43
2022-11-05T20:19:35.575Z,75.02
2022-11-05T20:22:24.152Z,74.83
2022-11-05T20:25:12.300Z,75.26
2022-11-05T20:27:59.870Z,75.55
2022-11-05T20:30:49.012Z,75.27
2022-11-05T20:33:36.413Z,75.52
2022-11-05T20:36:25.762Z,75.03
2022-11-05T20:39:13.327Z,75.93
2022-11-05T20:42:01.416Z,74.99
2022-11-05T20:44:49.306Z,74.49
2022-11-05T20:47:38.542Z,74.58
2022-11-05T20:50:25.792Z,74.95
2022-11-05T20:53:14.377Z,75.54
2022-11-05T20:56:07.471Z,76.14
2022-11-05T20:58:57.850Z,76.36
2022-11-05T21:01:45.258Z,77.09
2022-11-05T21:04:34.197Z,76.30
2022-11-05T21:07:21.589Z,76.63
2022-11-05T21:10:09.382Z,76.38
2022-11-05T21:12:56.712Z,75.88
2022-11-05T21:15:48.896Z,75.64
2022-11-05T21:18:38.544Z,75.73
2022-11-05T21:21:27.159Z,75.59
2022-11-05T21:24:14.742Z,76.86
2022-11-05T21:27:03.222Z,78.53
2022-11-05T21:29:50.087Z,76.85
2022-11-05T21:32:37.705Z,77.49
2022-11-05T21:35:25.260Z,76.93
2022-11-05T21:38:16.023Z,76.47
2022-11-05T21:41:04.523Z,76.82
2022-11-05T21:43:51.732Z,76.55
2022-11-05T21:46:39.607Z,77.19
2022-11-05T21:49:27.275Z,76.80
2022-11-05T21:52:32.286Z,77.15
2022-11-05T21:55:38.493Z,77.19
2022-11-05T21:58:43.872Z,77.53
2022-11-05T22:01:31.752Z,77.61
2022-11-05T22:04:19.554Z,76.89
2022-11-05T22:07:08.540Z,76.42
2022-11-05T22:09:56.294Z,76.63
2022-11-05T22:12:45.912Z,76.28
2022-11-05T22:15:34.447Z,77.21
2022-11-05T22:18:21.872Z,77.33
2022-11-05T22:21:09.384Z,77.07
2022-11-05T22:23:56.679Z,76.56
2022-11-05T22:26:44.801Z,76.20
2022-11-05T22:29:34.308Z,76.68
2022-11-05T22:32:21.686Z,76.79
2022-11-05T22:35:09.621Z,76.98
2022-11-05T22:37:57.192Z,77.85
2022-11-05T22:40:44.633Z,78.08
2022-11-05T22:43:33.284Z,78.14
2022-11-05T22:46:23.979Z,78.50
2022-11-05T22:49:11.366Z,78.08
2022-11-05T22:51:59.103Z,77.54
2022-11-05T22:54:47.859Z,76.59
2022-11-05T22:57:35.089Z,77.53
2022-11-05T23:00:33.960Z,77.11
2022-11-05T23:03:22.505Z,77.75
2022-11-05T23:06:36.107Z,77.60
2022-11-05T23:09:43.377Z,76.74
2022-11-05T23:12:32.908Z,76.88
2022-11-05T23:15:34.648Z,77.24
2022-11-05T23:18:40.869Z,76.88
2022-11-05T23:21:45.445Z,76.54
2022-11-05T23:24:32.890Z,76.53
2022-11-05T23:27:20.329Z,77.42
2022-11-05T23:30:11.200Z,76.51
2022-11-05T23:32:57.249Z,76.67
2022-11-05T23:36:03.357Z,76.38
2022-11-05T23:38:50.915Z,77.35
2022-11-05T23:41:55.162Z,75.96
2022-11-05T23:45:00.456Z,76.45
2022-11-05T23:48:05.780Z,76.10
2022-11-05T23:51:00.063Z,76.81
2022-11-05T23:53:48.159Z,76.94
2022-11-05T23:56:35.939Z,76.87
2022-11-05T23:59:23.237Z,76.92
